Time;durP1;ratioP1;P1;durP2;ratioP2;P2;SDS_P1;SDS_P2;PMS_P1;PMS_P2;Temp;Humidity;BMP_temperature;BMP_pressure;BME280_temperature;BME280_humidity;BME280_pressure;Samples;Min_cycle;Max_cycle;Signal;HPM_P1;HPM_P2
2024/01/12 00:03:55;;;;;;;50.30;19.40;;;;;-4.40;97248.00;;;;8270849;28;20229;-67
2024/01/12 00:08:00;;;;;;;47.93;18.57;;;;;-4.40;97259.00;;;;8270421;28;20285;-67
2024/01/12 00:12:03;;;;;;;44.60;17.00;;;;;-4.50;97256.00;;;;8270016;28;20258;-66
2024/01/12 00:16:07;;;;;;;49.17;18.43;;;;;-4.50;97272.00;;;;8270755;28;20202;-66
2024/01/12 00:20:11;;;;;;;42.87;18.87;;;;;-4.60;97270.00;;;;8262097;28;20194;-66
2024/01/12 00:24:16;;;;;;;47.33;17.97;;;;;-4.60;97266.00;;;;8236779;28;20200;-66
2024/01/12 00:28:19;;;;;;;46.17;17.70;;;;;-4.70;97277.00;;;;8237099;28;20282;-66
2024/01/12 00:32:22;;;;;;;44.37;18.27;;;;;-4.80;97277.00;;;;8250651;28;20672;-66
2024/01/12 00:36:25;;;;;;;45.03;17.23;;;;;-4.80;97269.00;;;;8268946;28;20199;-67
2024/01/12 00:40:33;;;;;;;43.37;16.33;;;;;-4.80;97259.00;;;;8269473;28;20197;-66
2024/01/12 00:44:36;;;;;;;47.73;17.00;;;;;-4.80;97257.00;;;;8269396;28;20540;-66
2024/01/12 00:48:39;;;;;;;39.00;15.33;;;;;-4.70;97268.00;;;;8268020;28;20278;-67
2024/01/12 00:52:42;;;;;;;45.93;16.90;;;;;-4.80;97265.00;;;;8253430;28;20287;-66
2024/01/12 00:56:47;;;;;;;40.57;17.20;;;;;-4.80;97267.00;;;;8237641;28;20192;-67
2024/01/12 01:00:50;;;;;;;42.93;15.50;;;;;-4.80;97276.00;;;;8236426;28;20664;-67
2024/01/12 01:04:55;;;;;;;37.43;16.23;;;;;-4.90;97281.00;;;;8237368;28;20255;-67
2024/01/12 01:08:58;;;;;;;43.10;15.77;;;;;-5.00;97281.00;;;;8234914;28;20291;-67
2024/01/12 01:13:05;;;;;;;47.10;16.50;;;;;-5.10;97286.00;;;;8235530;28;20211;-67
2024/01/12 01:17:08;;;;;;;40.53;15.97;;;;;-5.10;97281.00;;;;8236438;28;20195;-67
2024/01/12 01:21:11;;;;;;;39.93;16.73;;;;;-5.20;97280.00;;;;8235989;28;20250;-67
2024/01/12 01:25:15;;;;;;;41.67;15.77;;;;;-5.30;97273.00;;;;8235147;28;20234;-65
2024/01/12 01:29:21;;;;;;;37.57;15.60;;;;;-5.30;97273.00;;;;8235405;28;20203;-67
2024/01/12 01:33:24;;;;;;;48.17;15.90;;;;;-5.30;97274.00;;;;8235603;28;20223;-67
2024/01/12 01:37:27;;;;;;;40.00;15.47;;;;;-5.40;97259.00;;;;8235615;28;20600;-67
2024/01/12 01:41:30;;;;;;;30.30;12.80;;;;;-5.40;97256.00;;;;8234784;28;20226;-67
2024/01/12 01:45:36;;;;;;;35.57;14.73;;;;;-5.50;97263.00;;;;8234906;28;20192;-67
2024/01/12 01:49:39;;;;;;;37.50;15.70;;;;;-5.50;97248.00;;;;8235597;28;20222;-66
2024/01/12 01:53:43;;;;;;;45.53;17.60;;;;;-5.50;97255.00;;;;8234626;28;20270;-66
2024/01/12 01:57:48;;;;;;;41.83;15.50;;;;;-5.50;97257.00;;;;8232779;28;20195;-66
2024/01/12 02:01:52;;;;;;;42.63;16.00;;;;;-5.70;97255.00;;;;8235382;28;20680;-66
2024/01/12 02:05:56;;;;;;;35.73;15.33;;;;;-5.70;97254.00;;;;8235167;28;20227;-66
2024/01/12 02:10:00;;;;;;;41.33;15.37;;;;;-5.80;97253.00;;;;8234814;28;20648;-66
2024/01/12 02:14:06;;;;;;;41.40;14.63;;;;;-5.90;97267.00;;;;8234408;28;20313;-67
2024/01/12 02:18:11;;;;;;;36.97;13.57;;;;;-6.00;97262.00;;;;8234804;28;20182;-67
2024/01/12 02:22:16;;;;;;;33.00;13.77;;;;;-6.20;97268.00;;;;8234994;28;20286;-67
2024/01/12 02:26:19;;;;;;;43.07;14.90;;;;;-6.30;97262.00;;;;8234063;28;20306;-67
2024/01/12 02:30:22;;;;;;;40.67;16.17;;;;;-6.30;97268.00;;;;8234334;28;20194;-67
2024/01/12 02:34:26;;;;;;;32.83;14.83;;;;;-6.40;97277.00;;;;8234126;28;20227;-67
2024/01/12 02:38:31;;;;;;;36.50;12.90;;;;;-6.40;97272.00;;;;8234376;28;20205;-67
2024/01/12 02:42:34;;;;;;;34.90;13.77;;;;;-6.50;97277.00;;;;8233983;28;20286;-66
2024/01/12 02:46:37;;;;;;;34.97;14.17;;;;;-6.60;97289.00;;;;8234117;28;20245;-66
2024/01/12 02:50:40;;;;;;;33.67;12.67;;;;;-6.60;97303.00;;;;8238124;28;20289;-67
2024/01/12 02:54:45;;;;;;;28.00;11.70;;;;;-6.70;97287.00;;;;8240266;28;20230;-66
2024/01/12 02:58:50;;;;;;;36.10;13.00;;;;;-6.70;97291.00;;;;8239473;28;20274;-66
2024/01/12 03:02:53;;;;;;;36.63;14.20;;;;;-6.60;97291.00;;;;8331562;22;20333;-64
2024/01/12 03:06:56;;;;;;;33.60;13.97;;;;;-6.50;97291.00;;;;8288602;28;20245;-64
2024/01/12 03:11:01;;;;;;;38.63;14.20;;;;;-6.40;97290.00;;;;8290349;28;20301;-65
2024/01/12 03:15:05;;;;;;;41.23;13.27;;;;;-6.40;97280.00;;;;8287533;28;20367;-65
2024/01/12 03:19:08;;;;;;;32.80;13.37;;;;;-6.30;97276.00;;;;8288710;28;20210;-65
2024/01/12 03:23:11;;;;;;;36.60;13.30;;;;;-6.30;97270.00;;;;8287144;28;20333;-66
2024/01/12 03:27:16;;;;;;;38.40;14.07;;;;;-6.30;97274.00;;;;8284613;28;20307;-64
2024/01/12 03:31:20;;;;;;;37.77;13.57;;;;;-6.40;97274.00;;;;8289050;28;20671;-65
2024/01/12 03:35:23;;;;;;;33.30;13.63;;;;;-6.40;97279.00;;;;8287503;28;20236;-65
2024/01/12 03:39:26;;;;;;;31.80;13.33;;;;;-6.40;97272.00;;;;8289043;28;20214;-65
2024/01/12 03:43:30;;;;;;;33.67;13.80;;;;;-6.50;97275.00;;;;8287120;28;20678;-65
2024/01/12 03:47:33;;;;;;;31.93;13.07;;;;;-6.50;97285.00;;;;8288638;28;20209;-66
2024/01/12 03:51:37;;;;;;;35.63;13.47;;;;;-6.60;97290.00;;;;8290014;28;20303;-65
2024/01/12 03:55:40;;;;;;;35.00;13.90;;;;;-6.50;97287.00;;;;8289040;28;20221;-65
2024/01/12 03:59:44;;;;;;;36.47;13.83;;;;;-6.40;97293.00;;;;8287869;28;20205;-65
2024/01/12 04:03:48;;;;;;;43.87;16.33;;;;;-6.30;97300.00;;;;8284500;28;20275;-65
2024/01/12 04:07:51;;;;;;;44.77;17.00;;;;;-6.20;97310.00;;;;8274471;28;20308;-65
2024/01/12 04:11:54;;;;;;;52.10;16.13;;;;;-6.00;97322.00;;;;8274524;28;20898;-65
2024/01/12 04:15:58;;;;;;;38.20;15.23;;;;;-5.90;97313.00;;;;8278444;28;22001;-65
2024/01/12 04:20:02;;;;;;;47.57;17.77;;;;;-5.70;97304.00;;;;8274806;28;20221;-65
2024/01/12 04:24:05;;;;;;;47.13;16.30;;;;;-5.50;97309.00;;;;8275519;28;20205;-66
2024/01/12 04:28:08;;;;;;;36.87;15.70;;;;;-5.30;97304.00;;;;8279071;28;20292;-65
2024/01/12 04:32:13;;;;;;;39.23;15.67;;;;;-5.20;97298.00;;;;8272034;28;20749;-64
2024/01/12 04:36:16;;;;;;;35.47;15.07;;;;;-5.00;97307.00;;;;8277123;28;20207;-68
2024/01/12 04:40:19;;;;;;;34.00;14.57;;;;;-4.80;97298.00;;;;8275712;28;21049;-68
2024/01/12 04:44:22;;;;;;;33.63;13.80;;;;;-4.60;97308.00;;;;8273975;28;20293;-66
2024/01/12 04:48:26;;;;;;;37.17;14.57;;;;;-4.50;97303.00;;;;8272197;28;20201;-68
2024/01/12 04:52:30;;;;;;;37.13;13.80;;;;;-4.40;97310.00;;;;8276360;28;20230;-69
2024/01/12 04:56:33;;;;;;;39.40;14.67;;;;;-4.20;97307.00;;;;8272230;28;20312;-68
2024/01/12 05:00:36;;;;;;;28.20;11.87;;;;;-4.20;97312.00;;;;8276759;28;20296;-68
2024/01/12 05:04:41;;;;;;;27.63;11.43;;;;;-3.90;97301.00;;;;8276953;28;21992;-69
2024/01/12 05:08:44;;;;;;;43.37;15.30;;;;;-3.80;97306.00;;;;8274172;28;20202;-69
2024/01/12 05:12:47;;;;;;;38.87;15.40;;;;;-3.70;97317.00;;;;8273332;28;20225;-70
2024/01/12 05:16:50;;;;;;;40.23;14.87;;;;;-3.60;97309.00;;;;8278227;28;20210;-70
2024/01/12 05:20:55;;;;;;;23.87;10.87;;;;;-3.50;97318.00;;;;8275653;28;20232;-70
2024/01/12 05:24:58;;;;;;;25.53;10.97;;;;;-3.40;97320.00;;;;8280243;28;20242;-69
2024/01/12 05:29:01;;;;;;;27.43;12.17;;;;;-3.40;97315.00;;;;8281087;28;20229;-69
2024/01/12 05:33:05;;;;;;;28.23;10.20;;;;;-3.30;97306.00;;;;8273298;28;20224;-69
2024/01/12 05:37:09;;;;;;;26.37;11.53;;;;;-3.30;97324.00;;;;8272479;28;20275;-68
2024/01/12 05:41:12;;;;;;;29.40;12.07;;;;;-3.20;97338.00;;;;8273526;28;20208;-69
2024/01/12 05:45:15;;;;;;;30.03;11.20;;;;;-3.20;97335.00;;;;8271759;28;20197;-70
2024/01/12 05:49:19;;;;;;;25.50;9.10;;;;;-3.20;97346.00;;;;8272962;28;20212;-70
2024/01/12 05:53:25;;;;;;;35.50;12.77;;;;;-3.20;97334.00;;;;8273594;28;20242;-70
2024/01/12 05:57:32;;;;;;;35.73;12.03;;;;;-3.20;97341.00;;;;8273504;28;20267;-71
2024/01/12 06:01:35;;;;;;;29.63;11.80;;;;;-3.10;97347.00;;;;8269412;28;20302;-70
2024/01/12 06:05:38;;;;;;;21.37;10.60;;;;;-3.10;97333.00;;;;8264857;28;20274;-69
2024/01/12 06:09:43;;;;;;;30.53;10.50;;;;;-3.10;97342.00;;;;8268959;28;20202;-71
2024/01/12 06:13:46;;;;;;;26.43;10.20;;;;;-3.10;97336.00;;;;8272676;28;20308;-71
2024/01/12 06:17:49;;;;;;;30.00;11.20;;;;;-3.10;97338.00;;;;8272230;28;20762;-71
2024/01/12 06:21:53;;;;;;;29.07;11.77;;;;;-3.10;97326.00;;;;8270658;28;20209;-68
2024/01/12 06:25:58;;;;;;;31.07;12.23;;;;;-3.10;97331.00;;;;8267300;28;20645;-69
2024/01/12 06:30:01;;;;;;;28.33;11.13;;;;;-3.10;97337.00;;;;8267841;28;20221;-69
2024/01/12 06:34:04;;;;;;;25.20;11.07;;;;;-3.10;97328.00;;;;8266044;28;20309;-70
2024/01/12 06:38:10;;;;;;;26.43;11.30;;;;;-3.00;97333.00;;;;8263443;28;20255;-66
2024/01/12 06:42:14;;;;;;;30.13;11.47;;;;;-3.00;97324.00;;;;8244210;28;20674;-67
2024/01/12 06:46:17;;;;;;;33.50;11.90;;;;;-3.10;97329.00;;;;8254178;28;20736;-67
2024/01/12 06:50:20;;;;;;;27.17;11.43;;;;;-3.10;97336.00;;;;8260716;28;20216;-68
2024/01/12 06:54:24;;;;;;;29.23;12.13;;;;;-3.20;97339.00;;;;8260269;28;20292;-68
2024/01/12 06:58:28;;;;;;;35.07;12.90;;;;;-3.20;97338.00;;;;8247085;28;22645;-67
2024/01/12 07:02:31;;;;;;;28.83;12.43;;;;;-3.20;97333.00;;;;8263025;28;20270;-69
2024/01/12 07:06:35;;;;;;;29.47;11.87;;;;;-3.10;97322.00;;;;8268721;28;20212;-68
2024/01/12 07:10:38;;;;;;;29.97;11.83;;;;;-3.10;97317.00;;;;8268051;28;20221;-67
2024/01/12 07:14:43;;;;;;;35.40;13.10;;;;;-3.00;97327.00;;;;8258567;28;21168;-70
2024/01/12 07:18:46;;;;;;;31.60;12.57;;;;;-2.90;97334.00;;;;8267885;28;21107;-67
2024/01/12 07:22:49;;;;;;;32.33;12.63;;;;;-2.80;97336.00;;;;8255927;28;22460;-68
2024/01/12 07:26:52;;;;;;;36.17;13.30;;;;;-2.70;97342.00;;;;8265502;28;20202;-68
2024/01/12 07:30:57;;;;;;;31.87;14.07;;;;;-2.70;97352.00;;;;8263895;28;20205;-66
2024/01/12 07:35:00;;;;;;;58.23;22.33;;;;;-2.60;97353.00;;;;8262706;28;22349;-64
2024/01/12 07:39:04;;;;;;;88.33;32.27;;;;;-2.40;97354.00;;;;8266631;28;20235;-66
2024/01/12 07:43:08;;;;;;;661.43;279.63;;;;;-2.30;97361.00;;;;8271612;28;20299;-66
2024/01/12 07:47:13;;;;;;;45.63;19.43;;;;;-2.10;97366.00;;;;8266576;28;20212;-64
2024/01/12 07:51:16;;;;;;;49.47;20.43;;;;;-2.00;97365.00;;;;8271272;28;20226;-65
2024/01/12 07:55:19;;;;;;;96.70;38.80;;;;;-1.90;97363.00;;;;8267365;28;20680;-65
2024/01/12 07:59:23;;;;;;;240.63;95.27;;;;;-1.80;97374.00;;;;8268510;28;20309;-64
2024/01/12 08:03:27;;;;;;;49.27;21.60;;;;;-1.70;97363.00;;;;8268637;28;20296;-64
2024/01/12 08:07:30;;;;;;;40.10;18.10;;;;;-1.60;97375.00;;;;8272081;28;20856;-68
2024/01/12 08:11:33;;;;;;;43.57;17.07;;;;;-1.50;97380.00;;;;8272164;28;20207;-65
2024/01/12 08:15:43;;;;;;;35.77;15.00;;;;;-1.40;97373.00;;;;8273080;28;20233;-65
2024/01/12 08:19:48;;;;;;;42.00;16.03;;;;;-1.30;97374.00;;;;8268857;28;20789;-67
2024/01/12 08:23:52;;;;;;;41.40;22.63;;;;;-1.20;97377.00;;;;8267832;28;22029;-66
2024/01/12 08:27:55;;;;;;;44.77;23.70;;;;;-1.20;97384.00;;;;8267816;28;20202;-65
2024/01/12 08:31:58;;;;;;;48.83;23.73;;;;;-1.10;97401.00;;;;8269063;28;20325;-66
2024/01/12 08:36:04;;;;;;;40.67;15.73;;;;;-1.10;97389.00;;;;8269928;28;20238;-67
2024/01/12 08:40:08;;;;;;;37.43;18.20;;;;;-1.00;97388.00;;;;8269644;28;20640;-66
2024/01/12 08:44:12;;;;;;;37.83;15.10;;;;;-0.90;97409.00;;;;8266609;28;20216;-67
2024/01/12 08:48:15;;;;;;;32.67;14.20;;;;;-0.80;97397.00;;;;8270486;28;20908;-66
2024/01/12 08:52:20;;;;;;;41.73;15.03;;;;;-0.70;97403.00;;;;8277353;28;20848;-68
2024/01/12 08:56:23;;;;;;;39.13;14.80;;;;;-0.50;97407.00;;;;8271654;28;20894;-67
2024/01/12 09:00:26;;;;;;;41.07;14.87;;;;;-0.30;97400.00;;;;8274499;28;21965;-67
2024/01/12 09:04:31;;;;;;;35.83;15.03;;;;;-0.10;97396.00;;;;8270147;28;20902;-67
2024/01/12 09:08:36;;;;;;;35.07;14.87;;;;;-0.10;97394.00;;;;8271943;28;20211;-68
2024/01/12 09:12:39;;;;;;;41.67;15.17;;;;;0.00;97392.00;;;;8273433;28;20230;-67
2024/01/12 09:16:42;;;;;;;35.07;14.03;;;;;0.10;97391.00;;;;8273759;28;20249;-67
2024/01/12 09:20:45;;;;;;;29.53;13.60;;;;;0.20;97396.00;;;;8271940;28;20226;-68
2024/01/12 09:24:50;;;;;;;37.33;15.47;;;;;0.30;97402.00;;;;8268751;28;20272;-67
2024/01/12 09:28:53;;;;;;;31.87;14.30;;;;;0.30;97405.00;;;;8271226;28;20601;-68
2024/01/12 09:32:56;;;;;;;30.17;13.83;;;;;0.30;97423.00;;;;8273051;28;20210;-66
2024/01/12 09:36:59;;;;;;;32.93;13.90;;;;;0.50;97420.00;;;;8277619;28;20264;-67
2024/01/12 09:41:04;;;;;;;26.20;12.07;;;;;0.50;97421.00;;;;8274785;28;20201;-66
2024/01/12 09:45:12;;;;;;;35.47;14.03;;;;;0.60;97425.00;;;;8276277;28;21125;-65
2024/01/12 09:49:27;;;;;;;30.77;13.20;;;;;0.70;97430.00;;;;8271246;28;20258;-65
2024/01/12 09:53:31;;;;;;;29.80;12.63;;;;;0.70;97433.00;;;;8273885;28;20802;-66
2024/01/12 09:57:37;;;;;;;29.53;13.17;;;;;0.80;97435.00;;;;8275058;28;20235;-68
2024/01/12 10:01:42;;;;;;;30.30;12.83;;;;;0.90;97438.00;;;;8272271;28;20211;-66
2024/01/12 10:05:45;;;;;;;32.90;13.67;;;;;1.00;97422.00;;;;8274282;28;20724;-67
2024/01/12 10:09:49;;;;;;;28.93;12.80;;;;;1.10;97418.00;;;;8271054;28;20220;-68
2024/01/12 10:13:53;;;;;;;31.90;13.07;;;;;1.10;97417.00;;;;8269201;28;20199;-68
2024/01/12 10:17:57;;;;;;;32.63;15.23;;;;;1.20;97410.00;;;;8274618;28;20206;-67
2024/01/12 10:22:00;;;;;;;34.00;14.67;;;;;1.30;97402.00;;;;8274020;28;20204;-68
2024/01/12 10:26:05;;;;;;;30.13;13.60;;;;;1.40;97405.00;;;;8272706;28;20215;-68
2024/01/12 10:30:11;;;;;;;32.77;13.67;;;;;1.40;97403.00;;;;8273056;28;20267;-66
2024/01/12 10:34:15;;;;;;;26.50;12.77;;;;;1.50;97404.00;;;;8270778;28;20737;-68
2024/01/12 10:38:22;;;;;;;29.17;13.53;;;;;1.50;97405.00;;;;8268454;28;20203;-69
2024/01/12 10:42:28;;;;;;;27.07;12.23;;;;;1.40;97394.00;;;;8271954;28;20205;-68
2024/01/12 10:46:37;;;;;;;29.50;12.60;;;;;1.50;97384.00;;;;8270205;28;20209;-68
2024/01/12 10:50:43;;;;;;;30.43;13.20;;;;;1.60;97386.00;;;;8270428;28;20232;-68
2024/01/12 10:54:57;;;;;;;31.20;13.50;;;;;1.70;97390.00;;;;8263760;28;20299;-67
2024/01/12 10:59:00;;;;;;;27.80;12.63;;;;;1.90;97382.00;;;;8269609;28;20264;-70
2024/01/12 11:03:08;;;;;;;28.33;12.43;;;;;2.10;97378.00;;;;8265421;28;20356;-69
2024/01/12 11:07:13;;;;;;;29.80;12.77;;;;;2.10;97379.00;;;;8269900;28;20897;-70
2024/01/12 11:11:22;;;;;;;27.03;11.67;;;;;2.30;97372.00;;;;8270016;28;20208;-69
2024/01/12 11:15:25;;;;;;;26.93;11.87;;;;;2.40;97372.00;;;;8266520;28;20320;-69
2024/01/12 11:19:30;;;;;;;26.23;12.20;;;;;2.60;97373.00;;;;8269098;28;20211;-70
2024/01/12 11:23:39;;;;;;;27.30;12.07;;;;;2.70;97359.00;;;;8270155;28;20204;-69
2024/01/12 11:27:43;;;;;;;22.50;11.10;;;;;2.70;97365.00;;;;8266537;28;20251;-69
2024/01/12 11:31:50;;;;;;;27.00;12.10;;;;;2.70;97350.00;;;;8277295;28;20330;-68
2024/01/12 11:35:54;;;;;;;23.53;11.93;;;;;2.80;97348.00;;;;8272927;28;20656;-69
2024/01/12 11:39:58;;;;;;;26.67;11.77;;;;;2.80;97351.00;;;;8273163;28;20802;-67
2024/01/12 11:44:01;;;;;;;25.57;11.53;;;;;2.80;97362.00;;;;8270440;28;20197;-68
2024/01/12 11:48:04;;;;;;;29.70;12.43;;;;;2.80;97344.00;;;;8270413;28;20206;-68
2024/01/12 11:52:09;;;;;;;29.97;13.40;;;;;2.70;97345.00;;;;8275108;28;20220;-68
2024/01/12 11:56:13;;;;;;;26.83;12.00;;;;;2.70;97339.00;;;;8272547;28;20247;-67
2024/01/12 12:00:17;;;;;;;24.03;12.13;;;;;2.70;97348.00;;;;8272770;28;20348;-68
2024/01/12 12:04:20;;;;;;;25.97;11.60;;;;;2.80;97340.00;;;;8271283;28;20223;-70
2024/01/12 12:08:27;;;;;;;25.37;12.13;;;;;2.80;97345.00;;;;8270097;28;20650;-70
2024/01/12 12:12:30;;;;;;;24.57;11.40;;;;;2.80;97335.00;;;;8277787;28;20208;-69
2024/01/12 12:16:34;;;;;;;26.83;11.63;;;;;2.80;97332.00;;;;8278294;28;20227;-70
2024/01/12 12:20:38;;;;;;;26.73;12.33;;;;;2.70;97314.00;;;;8273357;28;20209;-67
2024/01/12 12:24:42;;;;;;;25.50;12.07;;;;;2.70;97314.00;;;;8277967;28;20208;-68
2024/01/12 12:28:45;;;;;;;24.80;12.37;;;;;2.80;97309.00;;;;8278156;28;20221;-69
2024/01/12 12:32:49;;;;;;;27.53;12.43;;;;;2.70;97309.00;;;;8279068;28;20554;-68
2024/01/12 12:36:52;;;;;;;24.57;11.83;;;;;2.70;97301.00;;;;8274070;28;20228;-68
2024/01/12 12:40:58;;;;;;;26.47;12.17;;;;;2.70;97282.00;;;;8275263;28;20311;-67
2024/01/12 12:45:01;;;;;;;24.90;11.10;;;;;2.70;97290.00;;;;8278909;28;20220;-67
2024/01/12 12:49:05;;;;;;;25.70;11.77;;;;;2.70;97266.00;;;;8280849;28;20281;-68
2024/01/12 12:53:10;;;;;;;23.97;10.97;;;;;2.80;97262.00;;;;8279104;28;20272;-67
2024/01/12 12:57:15;;;;;;;22.03;10.43;;;;;2.80;97254.00;;;;8279407;28;20610;-67
2024/01/12 13:01:18;;;;;;;16.17;8.87;;;;;2.80;97252.00;;;;8280049;28;20229;-68
2024/01/12 13:05:22;;;;;;;15.60;9.43;;;;;2.70;97242.00;;;;8276421;28;20316;-67
2024/01/12 13:09:26;;;;;;;13.10;7.00;;;;;2.60;97244.00;;;;8270072;28;20212;-67
2024/01/12 13:13:30;;;;;;;14.83;7.53;;;;;2.50;97238.00;;;;8263640;28;21022;-68
2024/01/12 13:17:34;;;;;;;15.30;8.20;;;;;2.50;97229.00;;;;8259881;28;21892;-68
2024/01/12 13:21:37;;;;;;;18.27;9.40;;;;;2.50;97229.00;;;;8256169;28;20818;-67
2024/01/12 13:25:40;;;;;;;17.37;8.63;;;;;2.40;97236.00;;;;8262566;28;20209;-69
2024/01/12 13:29:44;;;;;;;26.17;11.33;;;;;2.40;97239.00;;;;8259577;28;20672;-69
2024/01/12 13:33:48;;;;;;;25.23;11.40;;;;;2.30;97227.00;;;;8262286;28;20210;-67
2024/01/12 13:37:51;;;;;;;30.33;12.40;;;;;2.30;97228.00;;;;8254874;28;20261;-68
2024/01/12 13:41:54;;;;;;;31.93;12.70;;;;;2.20;97227.00;;;;8256481;28;20340;-67
2024/01/12 13:46:03;;;;;;;29.53;13.77;;;;;2.10;97234.00;;;;8261743;28;20206;-67
2024/01/12 13:50:08;;;;;;;49.47;24.53;;;;;2.00;97223.00;;;;8260326;28;20206;-65
2024/01/12 13:54:14;;;;;;;154.80;70.63;;;;;2.00;97231.00;;;;8260244;28;20674;-66
2024/01/12 13:58:19;;;;;;;43.53;21.30;;;;;2.00;97232.00;;;;8260705;28;20271;-68
2024/01/12 14:02:23;;;;;;;286.60;122.40;;;;;2.00;97227.00;;;;8261736;28;20328;-65
2024/01/12 14:06:26;;;;;;;39.73;19.53;;;;;1.90;97238.00;;;;8259950;28;20513;-68
2024/01/12 14:10:30;;;;;;;33.27;13.97;;;;;1.90;97246.00;;;;8266029;28;20235;-67
2024/01/12 14:14:34;;;;;;;31.40;13.37;;;;;2.00;97248.00;;;;8268185;28;20215;-67
2024/01/12 14:18:39;;;;;;;58.00;28.03;;;;;2.00;97252.00;;;;8254491;28;20229;-67
2024/01/12 14:22:45;;;;;;;32.63;15.30;;;;;1.90;97252.00;;;;8255903;28;20852;-68
2024/01/12 14:26:48;;;;;;;30.23;13.57;;;;;1.90;97253.00;;;;8259624;28;20276;-67
2024/01/12 14:30:51;;;;;;;35.40;14.10;;;;;1.80;97245.00;;;;8258998;28;20233;-67
2024/01/12 14:34:56;;;;;;;37.87;17.63;;;;;1.80;97248.00;;;;8262208;28;20216;-73
2024/01/12 14:39:00;;;;;;;38.13;17.37;;;;;1.70;97259.00;;;;8262410;28;20323;-76
2024/01/12 14:43:03;;;;;;;38.97;17.80;;;;;1.70;97266.00;;;;8257592;28;20226;-73
2024/01/12 14:47:07;;;;;;;43.10;20.10;;;;;1.60;97267.00;;;;8258588;28;22570;-73
2024/01/12 14:51:12;;;;;;;43.13;19.33;;;;;1.60;97261.00;;;;8261079;28;20208;-73
2024/01/12 14:55:16;;;;;;;52.67;29.90;;;;;1.60;97256.00;;;;8260975;28;20213;-73
2024/01/12 14:59:20;;;;;;;32.70;17.80;;;;;1.50;97257.00;;;;8256725;28;20232;-72
2024/01/12 15:03:23;;;;;;;32.63;13.67;;;;;1.50;97253.00;;;;8256463;28;20259;-74
2024/01/12 15:07:28;;;;;;;30.03;12.93;;;;;1.50;97249.00;;;;8258035;28;20673;-73
2024/01/12 15:11:32;;;;;;;30.83;12.90;;;;;1.50;97256.00;;;;8259857;28;20283;-73
2024/01/12 15:15:37;;;;;;;30.90;13.33;;;;;1.50;97265.00;;;;8259386;28;20248;-73
2024/01/12 15:19:42;;;;;;;25.90;11.30;;;;;1.50;97260.00;;;;8260229;28;20380;-74
2024/01/12 15:23:47;;;;;;;29.77;12.60;;;;;1.40;97256.00;;;;8265867;28;20646;-75
2024/01/12 15:27:50;;;;;;;30.50;12.87;;;;;1.40;97265.00;;;;8262535;28;20244;-74
2024/01/12 15:31:53;;;;;;;25.43;12.00;;;;;1.30;97269.00;;;;8262441;28;20216;-76
2024/01/12 15:35:56;;;;;;;28.60;12.60;;;;;1.20;97272.00;;;;8260753;28;20206;-72
2024/01/12 15:40:01;;;;;;;26.60;11.60;;;;;1.20;97259.00;;;;8261447;28;20211;-71
2024/01/12 15:44:04;;;;;;;30.07;11.80;;;;;1.20;97259.00;;;;8263533;28;20213;-72
2024/01/12 15:48:08;;;;;;;30.80;12.97;;;;;1.10;97256.00;;;;8261740;28;20247;-71
2024/01/12 15:52:13;;;;;;;25.97;11.37;;;;;1.10;97252.00;;;;8258378;28;20212;-71
2024/01/12 15:56:21;;;;;;;33.70;15.27;;;;;1.00;97255.00;;;;8263651;28;20315;-70
2024/01/12 16:00:24;;;;;;;75.43;33.37;;;;;1.00;97252.00;;;;8267761;28;20927;-70
2024/01/12 16:04:27;;;;;;;67.47;33.10;;;;;0.90;97249.00;;;;8266912;28;20318;-70
2024/01/12 16:08:30;;;;;;;27.17;12.47;;;;;0.90;97246.00;;;;8265125;28;20666;-68
2024/01/12 16:12:35;;;;;;;24.93;11.10;;;;;0.90;97252.00;;;;8265450;28;20213;-68
2024/01/12 16:16:42;;;;;;;25.70;11.73;;;;;0.90;97262.00;;;;8269206;28;20240;-68
2024/01/12 16:20:47;;;;;;;29.43;13.30;;;;;0.90;97255.00;;;;8270612;28;20230;-68
2024/01/12 16:24:51;;;;;;;27.90;11.47;;;;;0.90;97246.00;;;;8263380;28;20206;-68
2024/01/12 16:28:56;;;;;;;22.70;10.73;;;;;0.90;97260.00;;;;8264409;28;22177;-68
2024/01/12 16:32:59;;;;;;;26.27;10.60;;;;;0.80;97267.00;;;;8263229;28;20306;-67
2024/01/12 16:37:03;;;;;;;24.33;11.03;;;;;0.70;97267.00;;;;8264412;28;20615;-67
2024/01/12 16:41:06;;;;;;;17.80;9.30;;;;;0.60;97254.00;;;;8269155;28;20302;-67
2024/01/12 16:45:11;;;;;;;25.23;11.07;;;;;0.50;97249.00;;;;8265450;28;20209;-67
2024/01/12 16:49:15;;;;;;;23.57;10.90;;;;;0.50;97246.00;;;;8262595;28;20208;-67
2024/01/12 16:53:20;;;;;;;25.50;11.67;;;;;0.50;97239.00;;;;8253638;28;20288;-67
2024/01/12 16:57:23;;;;;;;34.73;14.83;;;;;0.50;97246.00;;;;8258741;28;20228;-67
2024/01/12 17:01:28;;;;;;;27.20;11.83;;;;;0.40;97257.00;;;;8257168;28;20921;-67
2024/01/12 17:05:31;;;;;;;97.80;40.30;;;;;0.40;97255.00;;;;8256064;28;20312;-67
2024/01/12 17:09:35;;;;;;;56.67;25.07;;;;;0.30;97257.00;;;;8253374;28;20624;-68
2024/01/12 17:13:38;;;;;;;19.10;9.50;;;;;0.20;97268.00;;;;8261117;28;20922;-66
2024/01/12 17:17:42;;;;;;;17.87;9.40;;;;;0.10;97279.00;;;;8259652;28;20310;-68
2024/01/12 17:21:46;;;;;;;22.03;10.57;;;;;0.00;97282.00;;;;8261148;28;20206;-66
2024/01/12 17:25:49;;;;;;;22.27;11.20;;;;;-0.10;97286.00;;;;8256606;28;20215;-67
2024/01/12 17:29:52;;;;;;;25.77;11.00;;;;;-0.30;97291.00;;;;8259253;28;20288;-66
2024/01/12 17:33:57;;;;;;;25.13;11.77;;;;;-0.40;97287.00;;;;8263515;28;20252;-66
2024/01/12 17:38:00;;;;;;;25.20;12.43;;;;;-0.50;97276.00;;;;8259357;28;20228;-67
2024/01/12 17:42:04;;;;;;;24.97;11.97;;;;;-0.40;97272.00;;;;8258994;28;20202;-66
2024/01/12 17:46:08;;;;;;;29.17;12.47;;;;;-0.30;97262.00;;;;8261658;28;20285;-67
2024/01/12 17:50:13;;;;;;;31.47;12.60;;;;;-0.30;97266.00;;;;8259046;28;20733;-69
2024/01/12 17:54:19;;;;;;;30.70;13.60;;;;;-0.40;97264.00;;;;8261883;28;21057;-67
2024/01/12 17:58:22;;;;;;;40.57;15.23;;;;;-0.50;97255.00;;;;8257982;28;20213;-66
2024/01/12 18:02:25;;;;;;;31.20;12.57;;;;;-0.50;97274.00;;;;8261077;28;20244;-65
2024/01/12 18:06:30;;;;;;;33.10;13.50;;;;;-0.50;97273.00;;;;8262156;28;20214;-67
2024/01/12 18:10:33;;;;;;;33.40;14.47;;;;;-0.60;97286.00;;;;8258863;28;20217;-69
2024/01/12 18:14:38;;;;;;;33.27;14.00;;;;;-0.60;97282.00;;;;8259963;28;20193;-67
2024/01/12 18:18:41;;;;;;;29.03;12.47;;;;;-0.70;97288.00;;;;8256729;28;20233;-66
2024/01/12 18:22:47;;;;;;;29.37;12.60;;;;;-0.60;97283.00;;;;8260922;28;20209;-67
2024/01/12 18:26:50;;;;;;;30.83;13.17;;;;;-0.60;97294.00;;;;8260074;28;20252;-69
2024/01/12 18:30:54;;;;;;;32.03;13.53;;;;;-0.60;97301.00;;;;8260885;28;20268;-66
2024/01/12 18:34:57;;;;;;;39.17;15.53;;;;;-0.50;97296.00;;;;8264509;28;20198;-73
2024/01/12 18:39:01;;;;;;;34.30;14.23;;;;;-0.40;97295.00;;;;8258647;28;20680;-73
2024/01/12 18:43:05;;;;;;;33.63;14.33;;;;;-0.40;97300.00;;;;8260736;28;20299;-72
2024/01/12 18:47:09;;;;;;;31.20;13.70;;;;;-0.40;97288.00;;;;8261788;28;20209;-75
2024/01/12 18:51:12;;;;;;;30.20;14.07;;;;;-0.30;97292.00;;;;8258464;28;20196;-75
2024/01/12 18:55:17;;;;;;;33.90;13.83;;;;;-0.30;97287.00;;;;8258560;28;20281;-70
2024/01/12 18:59:21;;;;;;;29.53;12.93;;;;;-0.30;97266.00;;;;8255986;28;20268;-73
2024/01/12 19:03:24;;;;;;;28.50;13.30;;;;;-0.30;97262.00;;;;8251603;28;20228;-71
2024/01/12 19:07:27;;;;;;;31.57;14.30;;;;;-0.20;97252.00;;;;8256624;28;20278;-72
2024/01/12 19:11:32;;;;;;;39.47;15.50;;;;;-0.30;97241.00;;;;8253264;28;20215;-74
2024/01/12 19:15:36;;;;;;;41.33;16.23;;;;;-0.30;97241.00;;;;8258496;28;20249;-73
2024/01/12 19:19:39;;;;;;;43.27;15.93;;;;;-0.30;97254.00;;;;8260500;28;20313;-69
2024/01/12 19:23:43;;;;;;;43.03;16.73;;;;;-0.30;97252.00;;;;8264066;28;20902;-78
2024/01/12 19:27:47;;;;;;;41.23;16.80;;;;;-0.30;97245.00;;;;8268739;28;20887;-75
2024/01/12 19:31:51;;;;;;;39.67;15.43;;;;;-0.30;97256.00;;;;8263803;28;20315;-78
2024/01/12 19:35:55;;;;;;;41.10;15.07;;;;;-0.40;97268.00;;;;8269805;28;20280;-77
2024/01/12 19:39:58;;;;;;;39.57;15.93;;;;;-0.40;97260.00;;;;8268681;28;20774;-74
2024/01/12 19:44:04;;;;;;;53.00;18.37;;;;;-0.50;97267.00;;;;8267388;28;20211;-78
2024/01/12 19:48:07;;;;;;;47.83;17.47;;;;;-0.50;97270.00;;;;8266738;28;20254;-68
2024/01/12 19:52:11;;;;;;;55.87;18.17;;;;;-0.50;97265.00;;;;8269217;28;20203;-75
2024/01/12 19:56:14;;;;;;;57.27;19.30;;;;;-0.50;97261.00;;;;8269766;28;20204;-78
2024/01/12 20:00:19;;;;;;;59.93;19.17;;;;;-0.50;97262.00;;;;8265471;28;20287;-74